createdAt,value
2018-08-19T00:00:09.843Z,5.03
2018-08-19T00:02:35.842Z,4.50
2018-08-19T00:05:01.800Z,4.20
2018-08-19T00:07:27.798Z,4.47
2018-08-19T00:09:53.787Z,5.63
2018-08-19T00:12:19.767Z,4.47
2018-08-19T00:14:45.747Z,4.77
2018-08-19T00:17:11.868Z,4.50
2018-08-19T00:19:37.852Z,5.27
2018-08-19T00:22:03.845Z,4.53
2018-08-19T00:24:29.972Z,4.90
2018-08-19T00:26:56.034Z,4.53
2018-08-19T00:29:22.726Z,5.30
2018-08-19T00:31:48.696Z,5.40
2018-08-19T00:34:15.451Z,4.77
2018-08-19T00:36:41.428Z,4.53
2018-08-19T00:39:07.418Z,5.57
2018-08-19T00:41:33.376Z,4.93
2018-08-19T00:43:59.360Z,5.10
2018-08-19T00:46:25.354Z,4.83
2018-08-19T00:48:51.381Z,5.03
2018-08-19T00:51:17.360Z,4.93
2018-08-19T00:53:43.337Z,5.40
2018-08-19T00:56:09.327Z,5.00
2018-08-19T00:58:36.034Z,5.30
2018-08-19T01:01:02.009Z,5.70
2018-08-19T01:03:28.691Z,4.67
2018-08-19T01:05:54.661Z,5.00
2018-08-19T01:08:21.368Z,5.37
2018-08-19T01:10:47.354Z,5.20
2018-08-19T01:13:14.051Z,4.50
2018-08-19T01:15:40.037Z,5.17
2018-08-19T01:18:06.034Z,5.27
2018-08-19T01:20:31.990Z,5.20
2018-08-19T01:22:57.976Z,5.53
2018-08-19T01:25:23.934Z,5.10
2018-08-19T01:27:49.922Z,5.63
2018-08-19T01:30:15.906Z,5.77
2018-08-19T01:32:41.878Z,5.03
2018-08-19T01:35:07.828Z,5.00
2018-08-19T01:37:34.566Z,5.37
2018-08-19T01:40:00.546Z,5.10
2018-08-19T01:42:27.287Z,4.97
2018-08-19T01:44:53.994Z,4.93
2018-08-19T01:47:19.945Z,5.37
2018-08-19T01:49:46.656Z,5.27
2018-08-19T01:52:12.616Z,5.77
2018-08-19T01:54:39.321Z,5.63
2018-08-19T01:57:05.259Z,5.77
2018-08-19T01:59:31.206Z,5.57
2018-08-19T02:01:57.184Z,5.53
2018-08-19T02:04:23.141Z,4.87
2018-08-19T02:06:49.867Z,5.60
2018-08-19T02:09:16.582Z,5.63
2018-08-19T02:11:42.575Z,5.33
2018-08-19T02:14:08.548Z,5.70
2018-08-19T02:16:34.558Z,5.93
2018-08-19T02:19:00.539Z,6.00
2018-08-19T02:21:26.510Z,5.10
2018-08-19T02:23:52.483Z,5.30
2018-08-19T02:26:18.519Z,6.00
2018-08-19T02:28:44.496Z,5.97
2018-08-19T02:31:11.251Z,5.70
2018-08-19T02:33:37.233Z,5.73
2018-08-19T02:36:03.241Z,5.93
2018-08-19T02:38:29.211Z,5.37
2018-08-19T02:40:55.957Z,5.80
2018-08-19T02:43:22.668Z,5.97
2018-08-19T02:45:48.634Z,6.13
2018-08-19T02:48:14.628Z,6.10
2018-08-19T02:50:40.601Z,5.70
2018-08-19T02:53:06.596Z,6.27
2018-08-19T02:55:32.573Z,5.20
2018-08-19T02:57:58.577Z,5.60
2018-08-19T03:00:24.567Z,5.47
2018-08-19T03:02:50.546Z,6.27
2018-08-19T03:05:16.520Z,5.97
2018-08-19T03:07:42.519Z,6.20
2018-08-19T03:10:09.240Z,6.03
2018-08-19T03:12:35.237Z,6.53
2018-08-19T03:15:01.272Z,5.77
2018-08-19T03:17:27.211Z,5.97
2018-08-19T03:19:53.193Z,6.03
2018-08-19T03:22:19.198Z,6.00
2018-08-19T03:24:45.216Z,6.37
2018-08-19T03:27:11.191Z,6.10
2018-08-19T03:29:37.189Z,5.90
2018-08-19T03:32:03.160Z,6.13
2018-08-19T03:34:29.909Z,6.00
2018-08-19T03:36:56.621Z,5.23
2018-08-19T03:39:22.624Z,5.67
2018-08-19T03:41:49.325Z,5.37
2018-08-19T03:44:16.021Z,5.87
2018-08-19T03:46:42.020Z,5.40
2018-08-19T03:49:07.983Z,6.33
2018-08-19T03:51:33.972Z,5.37
2018-08-19T03:53:59.945Z,5.97
2018-08-19T03:56:26.679Z,5.50
2018-08-19T03:58:52.627Z,5.57
2018-08-19T04:01:18.600Z,5.13
2018-08-19T04:03:44.569Z,5.37
2018-08-19T04:06:10.554Z,5.30
2018-08-19T04:08:37.284Z,5.10
2018-08-19T04:11:03.269Z,5.30
2018-08-19T04:13:29.236Z,5.00
2018-08-19T04:15:55.222Z,5.50
2018-08-19T04:18:21.177Z,5.70
2018-08-19T04:20:47.135Z,5.10
2018-08-19T04:23:13.867Z,5.13
2018-08-19T04:25:40.562Z,5.10
2018-08-19T04:28:06.555Z,5.37
2018-08-19T04:30:32.561Z,5.07
2018-08-19T04:32:59.292Z,5.33
2018-08-19T04:35:25.258Z,5.17
2018-08-19T04:37:51.242Z,4.97
2018-08-19T04:40:17.240Z,5.13
2018-08-19T04:42:43.239Z,5.27
2018-08-19T04:45:09.182Z,5.13
2018-08-19T04:47:35.308Z,5.43
2018-08-19T04:50:01.262Z,5.50
2018-08-19T04:52:28.008Z,5.07
2018-08-19T04:54:54.737Z,5.40
2018-08-19T04:57:20.692Z,5.17
2018-08-19T04:59:46.680Z,5.10
2018-08-19T05:02:12.780Z,5.60
2018-08-19T05:04:38.740Z,5.83
2018-08-19T05:07:05.439Z,5.50
2018-08-19T05:09:31.418Z,5.23
2018-08-19T05:11:57.375Z,4.80
2018-08-19T05:14:23.390Z,5.37
2018-08-19T05:16:49.376Z,5.10
2018-08-19T05:19:16.095Z,5.33
2018-08-19T05:21:42.095Z,5.23
2018-08-19T05:24:08.057Z,5.40
2018-08-19T05:26:34.790Z,5.80
2018-08-19T05:29:00.752Z,5.13
2018-08-19T05:31:26.733Z,5.60
2018-08-19T05:33:52.687Z,5.57
2018-08-19T05:36:18.652Z,5.83
2018-08-19T05:38:44.624Z,6.03
2018-08-19T05:41:10.626Z,5.47
2018-08-19T05:43:37.335Z,5.87
2018-08-19T05:46:03.384Z,6.97
2018-08-19T05:48:29.404Z,6.33
2018-08-19T05:50:55.451Z,6.70
2018-08-19T05:53:21.489Z,6.30
2018-08-19T05:55:47.494Z,7.20
2018-08-19T05:58:14.207Z,6.83
2018-08-19T06:00:40.200Z,6.97
2018-08-19T06:03:06.154Z,6.37
2018-08-19T06:05:32.140Z,6.80
2018-08-19T06:07:58.103Z,7.60
2018-08-19T06:10:24.104Z,7.23
2018-08-19T06:12:50.076Z,6.27
2018-08-19T06:15:16.819Z,6.83
2018-08-19T06:17:43.528Z,6.70
2018-08-19T06:20:09.504Z,7.00
2018-08-19T06:22:35.498Z,7.67
2018-08-19T06:25:02.212Z,8.03
2018-08-19T06:27:28.207Z,6.77
2018-08-19T06:29:54.187Z,6.50
2018-08-19T06:32:20.917Z,7.67
2018-08-19T06:34:47.688Z,6.83
2018-08-19T06:37:14.384Z,6.93
2018-08-19T06:39:40.366Z,7.13
2018-08-19T06:42:06.338Z,7.27
2018-08-19T06:44:33.126Z,6.47
2018-08-19T06:46:59.983Z,6.90
2018-08-19T06:49:26.019Z,6.57
2018-08-19T06:51:51.951Z,6.50
2018-08-19T06:54:17.955Z,6.80
2018-08-19T06:56:43.924Z,6.07
2018-08-19T06:59:09.918Z,6.50
2018-08-19T07:01:36.534Z,6.67
2018-08-19T07:04:02.532Z,6.90
2018-08-19T07:06:28.540Z,6.63
2018-08-19T07:08:55.253Z,6.70
2018-08-19T07:11:21.263Z,6.20
2018-08-19T07:13:47.211Z,6.13
2018-08-19T07:16:13.349Z,6.13
2018-08-19T07:18:40.641Z,6.00
2018-08-19T07:21:07.735Z,6.13
2018-08-19T07:23:33.734Z,6.60
2018-08-19T07:25:59.718Z,5.90
2018-08-19T07:28:25.717Z,5.83
2018-08-19T07:30:52.486Z,6.23
2018-08-19T07:33:18.445Z,5.73
2018-08-19T07:35:44.430Z,5.70
2018-08-19T07:38:10.453Z,6.17
2018-08-19T07:40:36.437Z,5.67
2018-08-19T07:43:02.494Z,6.10
2018-08-19T07:45:28.598Z,6.20
2018-08-19T07:47:55.355Z,5.60
2018-08-19T07:50:21.340Z,6.17
2018-08-19T07:52:47.401Z,5.93
2018-08-19T07:55:13.801Z,7.07
2018-08-19T07:57:43.501Z,6.40
2018-08-19T08:00:09.531Z,5.83
2018-08-19T08:02:36.475Z,5.70
2018-08-19T08:05:02.490Z,7.27
2018-08-19T08:07:28.441Z,6.57
2018-08-19T08:09:54.454Z,5.93
2018-08-19T08:12:20.406Z,6.27
2018-08-19T08:14:47.102Z,6.03
2018-08-19T08:17:13.121Z,6.67
2018-08-19T08:19:39.103Z,6.47
2018-08-19T08:22:05.862Z,6.23
2018-08-19T08:24:31.847Z,6.17
2018-08-19T08:26:58.599Z,5.70
2018-08-19T08:29:25.293Z,5.90
2018-08-19T08:31:51.306Z,5.70
2018-08-19T08:34:17.275Z,4.90
2018-08-19T08:36:44.051Z,5.27
2018-08-19T08:39:10.052Z,4.53
2018-08-19T08:41:36.043Z,4.30
2018-08-19T08:44:02.016Z,4.40
2018-08-19T08:46:27.989Z,4.03
2018-08-19T08:48:53.978Z,4.05
2018-08-19T08:51:27.506Z,4.18
2018-08-19T08:53:53.500Z,4.40
2018-08-19T08:56:19.485Z,4.13
2018-08-19T08:58:46.230Z,4.23
2018-08-19T09:01:12.930Z,3.93
2018-08-19T09:03:38.894Z,4.20
2018-08-19T09:06:05.638Z,4.20
2018-08-19T09:08:32.336Z,4.43
2018-08-19T09:10:58.333Z,3.90
2018-08-19T09:13:24.307Z,3.80
2018-08-19T09:15:51.021Z,4.00
2018-08-19T09:18:16.993Z,3.65
2018-08-19T09:20:43.697Z,3.72
2018-08-19T09:23:10.530Z,4.10
2018-08-19T09:25:36.446Z,4.60
2018-08-19T09:28:02.499Z,5.03
2018-08-19T09:30:28.501Z,5.20
2018-08-19T09:32:55.315Z,4.80
2018-08-19T09:35:21.278Z,4.80
2018-08-19T09:37:47.268Z,4.10
2018-08-19T09:40:13.222Z,3.90
2018-08-19T09:42:39.208Z,4.20
2018-08-19T09:45:05.179Z,4.75
2018-08-19T09:47:31.164Z,3.87
2018-08-19T09:49:57.141Z,4.15
2018-08-19T09:52:23.842Z,3.80
2018-08-19T09:54:49.842Z,4.53
2018-08-19T09:57:15.807Z,4.57
2018-08-19T09:59:42.555Z,4.57
2018-08-19T10:02:09.287Z,4.57
2018-08-19T10:04:36.015Z,4.23
2018-08-19T10:07:02.001Z,5.03
2018-08-19T10:09:27.974Z,5.17
2018-08-19T10:11:57.026Z,4.67
2018-08-19T10:14:22.967Z,4.70
2018-08-19T10:16:49.662Z,5.17
2018-08-19T10:19:16.188Z,5.30
2018-08-19T10:21:42.912Z,4.97
2018-08-19T10:24:08.859Z,6.10
2018-08-19T10:26:34.908Z,5.53
2018-08-19T10:29:00.830Z,5.93
2018-08-19T10:31:26.898Z,5.70
2018-08-19T10:33:52.835Z,5.40
2018-08-19T10:36:19.529Z,5.43
2018-08-19T10:38:45.505Z,5.53
2018-08-19T10:41:12.199Z,5.80
2018-08-19T10:43:38.182Z,5.60
2018-08-19T10:46:04.924Z,5.80
2018-08-19T10:48:31.631Z,5.20
2018-08-19T10:50:57.605Z,5.63
2018-08-19T10:53:23.683Z,4.97
2018-08-19T10:55:49.603Z,5.30
2018-08-19T10:58:15.610Z,4.77
2018-08-19T11:00:42.424Z,5.37
2018-08-19T11:03:08.422Z,5.20
2018-08-19T11:05:34.429Z,5.13
2018-08-19T11:08:00.438Z,5.33
2018-08-19T11:10:27.178Z,5.23
2018-08-19T11:12:53.202Z,5.50
2018-08-19T11:15:19.212Z,4.97
2018-08-19T11:17:45.219Z,5.23
2018-08-19T11:20:11.169Z,6.03
2018-08-19T11:22:37.163Z,5.47
2018-08-19T11:25:03.129Z,5.60
2018-08-19T11:27:29.239Z,5.37
2018-08-19T11:29:55.162Z,4.80
2018-08-19T11:32:21.149Z,5.13
2018-08-19T11:34:47.110Z,4.73
2018-08-19T11:37:13.090Z,4.87
2018-08-19T11:39:39.044Z,4.80
2018-08-19T11:42:05.024Z,5.00
2018-08-19T11:44:31.015Z,5.00
2018-08-19T11:46:57.756Z,5.00
2018-08-19T11:49:23.730Z,4.40
2018-08-19T11:51:49.718Z,4.53
2018-08-19T11:54:15.697Z,4.67
2018-08-19T11:56:42.428Z,4.67
2018-08-19T11:59:08.402Z,4.70
2018-08-19T12:01:34.370Z,4.40
2018-08-19T12:04:00.346Z,5.23
2018-08-19T12:06:26.306Z,4.70
2018-08-19T12:08:52.302Z,4.63
2018-08-19T12:11:18.288Z,5.23
2018-08-19T12:13:45.965Z,4.27
2018-08-19T12:16:12.186Z,4.50
2018-08-19T12:18:38.953Z,4.33
2018-08-19T12:21:04.921Z,4.37
2018-08-19T12:23:30.923Z,3.77
2018-08-19T12:25:56.870Z,4.00
2018-08-19T12:28:22.874Z,4.20
2018-08-19T12:30:50.502Z,4.57
2018-08-19T12:33:16.485Z,3.90
2018-08-19T12:35:42.454Z,4.37
2018-08-19T12:38:08.425Z,4.20
2018-08-19T12:40:34.433Z,3.83
2018-08-19T12:43:00.424Z,4.03
2018-08-19T12:45:26.400Z,4.27
2018-08-19T12:47:53.161Z,4.47
2018-08-19T12:50:19.902Z,4.33
2018-08-19T12:52:46.656Z,3.90
2018-08-19T12:55:12.628Z,4.30
2018-08-19T12:57:38.614Z,4.23
2018-08-19T13:00:04.605Z,4.13
2018-08-19T13:02:30.577Z,4.10
2018-08-19T13:04:56.603Z,4.03
2018-08-19T13:07:22.566Z,3.73
2018-08-19T13:09:48.554Z,3.30
2018-08-19T13:12:14.521Z,3.63
2018-08-19T13:14:40.493Z,3.37
2018-08-19T13:17:06.449Z,3.77
2018-08-19T13:19:32.438Z,3.30
2018-08-19T13:21:58.514Z,3.10
2018-08-19T13:24:25.260Z,3.07
2018-08-19T13:26:51.963Z,3.47
2018-08-19T13:29:18.069Z,3.27
2018-08-19T13:31:44.069Z,3.10
2018-08-19T13:34:10.046Z,3.07
2018-08-19T13:36:35.993Z,3.27
2018-08-19T13:39:02.723Z,2.93
2018-08-19T13:41:28.673Z,3.03
2018-08-19T13:43:55.399Z,3.20
2018-08-19T13:46:22.119Z,3.57
2018-08-19T13:48:48.070Z,3.20
2018-08-19T13:51:14.789Z,2.97
2018-08-19T13:53:40.743Z,2.83
2018-08-19T13:56:06.736Z,2.63
2018-08-19T13:58:32.716Z,2.83
2018-08-19T14:00:58.704Z,2.73
2018-08-19T14:03:25.403Z,2.77
2018-08-19T14:05:51.380Z,2.90
2018-08-19T14:08:17.330Z,3.07
2018-08-19T14:10:43.328Z,2.80
2018-08-19T14:13:09.293Z,2.43
2018-08-19T14:15:35.245Z,2.60
2018-08-19T14:18:01.240Z,2.87
2018-08-19T14:20:27.268Z,2.90
2018-08-19T14:22:53.272Z,2.67
2018-08-19T14:25:19.243Z,3.07
2018-08-19T14:27:45.251Z,3.00
2018-08-19T14:30:11.319Z,2.77
2018-08-19T14:32:37.182Z,2.93
2018-08-19T14:35:03.173Z,3.07
2018-08-19T14:37:29.590Z,2.83
2018-08-19T14:39:56.158Z,3.30
2018-08-19T14:42:22.101Z,3.20
2018-08-19T14:44:48.875Z,3.10
2018-08-19T14:47:15.594Z,3.20
2018-08-19T14:49:41.559Z,3.17
2018-08-19T14:52:07.538Z,3.23
2018-08-19T14:54:33.482Z,2.80
2018-08-19T14:56:59.510Z,3.47
2018-08-19T14:59:25.502Z,3.50
2018-08-19T15:01:52.249Z,3.23
2018-08-19T15:04:18.180Z,3.10
2018-08-19T15:06:44.877Z,3.40
2018-08-19T15:09:10.865Z,2.83
2018-08-19T15:11:36.862Z,3.27
2018-08-19T15:14:02.836Z,3.17
2018-08-19T15:16:28.816Z,3.40
2018-08-19T15:18:54.791Z,2.83
2018-08-19T15:21:20.755Z,3.20
2018-08-19T15:23:46.716Z,3.43
2018-08-19T15:26:12.693Z,3.23
2018-08-19T15:28:38.693Z,3.30
2018-08-19T15:31:04.699Z,3.30
2018-08-19T15:33:30.673Z,3.60
2018-08-19T15:35:57.387Z,3.43
2018-08-19T15:38:23.671Z,3.33
2018-08-19T15:40:50.414Z,3.37
2018-08-19T15:43:16.289Z,3.30
2018-08-19T15:45:42.464Z,3.47
2018-08-19T15:48:08.458Z,3.30
2018-08-19T15:50:35.200Z,3.27
2018-08-19T15:53:01.989Z,3.37
2018-08-19T15:55:27.941Z,3.27
2018-08-19T15:57:53.940Z,3.13
2018-08-19T16:00:19.901Z,3.80
2018-08-19T16:02:46.648Z,3.87
2018-08-19T16:05:12.607Z,3.57
2018-08-19T16:07:38.575Z,3.13
2018-08-19T16:10:04.547Z,3.40
2018-08-19T16:12:30.575Z,3.17
2018-08-19T16:14:56.514Z,3.13
2018-08-19T16:17:22.468Z,3.03
2018-08-19T16:19:48.430Z,3.10
2018-08-19T16:22:14.391Z,3.23
2018-08-19T16:24:40.378Z,3.57
2018-08-19T16:27:06.350Z,3.73
2018-08-19T16:29:32.354Z,3.37
2018-08-19T16:31:58.320Z,3.33
2018-08-19T16:34:25.107Z,3.37
2018-08-19T16:36:51.081Z,3.37
2018-08-19T16:39:17.814Z,4.07
2018-08-19T16:41:43.796Z,4.10
2018-08-19T16:44:09.795Z,3.93
2018-08-19T16:46:35.789Z,3.63
2018-08-19T16:49:02.508Z,3.43
2018-08-19T16:51:28.488Z,3.33
2018-08-19T16:53:54.503Z,3.87
2018-08-19T16:56:20.502Z,3.30
2018-08-19T16:58:46.449Z,3.70
2018-08-19T17:01:13.173Z,3.77
2018-08-19T17:03:39.144Z,3.80
2018-08-19T17:06:05.161Z,3.07
2018-08-19T17:08:31.120Z,4.87
2018-08-19T17:10:57.115Z,3.80
2018-08-19T17:13:23.060Z,3.30
2018-08-19T17:15:49.008Z,3.23
2018-08-19T17:18:14.994Z,3.90
2018-08-19T17:20:40.949Z,3.53
2018-08-19T17:23:07.703Z,3.97
2018-08-19T17:25:34.421Z,4.03
2018-08-19T17:28:01.166Z,4.00
2018-08-19T17:30:27.131Z,3.63
2018-08-19T17:32:53.261Z,3.67
2018-08-19T17:35:19.820Z,4.67
2018-08-19T17:37:45.794Z,3.90
2018-08-19T17:40:12.492Z,4.07
2018-08-19T17:42:38.478Z,4.23
2018-08-19T17:45:04.445Z,4.00
2018-08-19T17:47:30.401Z,4.00
2018-08-19T17:49:57.119Z,4.70
2018-08-19T17:52:23.072Z,4.27
2018-08-19T17:54:49.066Z,4.40
2018-08-19T17:57:15.092Z,4.37
2018-08-19T17:59:41.134Z,4.43
2018-08-19T18:02:07.042Z,4.70
2018-08-19T18:04:33.785Z,4.30
2018-08-19T18:07:00.507Z,5.23
2018-08-19T18:09:26.539Z,4.73
2018-08-19T18:11:53.261Z,5.07
2018-08-19T18:14:19.252Z,5.00
2018-08-19T18:16:45.227Z,5.03
2018-08-19T18:19:11.221Z,5.00
2018-08-19T18:21:37.176Z,5.17
2018-08-19T18:24:03.127Z,4.90
2018-08-19T18:26:29.822Z,5.30
2018-08-19T18:28:55.782Z,4.80
2018-08-19T18:31:22.514Z,4.80
2018-08-19T18:33:49.202Z,3.60
2018-08-19T18:36:15.207Z,4.30
2018-08-19T18:38:41.177Z,4.30
2018-08-19T18:41:07.142Z,4.23
2018-08-19T18:43:33.855Z,4.47
2018-08-19T18:46:00.008Z,4.07
2018-08-19T18:48:25.870Z,4.40
2018-08-19T18:50:51.823Z,4.10
2018-08-19T18:53:17.812Z,3.93
2018-08-19T18:55:43.761Z,3.93
2018-08-19T18:58:09.745Z,3.90
2018-08-19T19:00:35.750Z,3.87
2018-08-19T19:03:01.749Z,3.60
2018-08-19T19:05:28.441Z,3.93
2018-08-19T19:07:54.460Z,3.93
2018-08-19T19:10:20.424Z,3.60
2018-08-19T19:12:46.380Z,3.93
2018-08-19T19:15:12.369Z,3.90
2018-08-19T19:17:38.320Z,3.80
2018-08-19T19:20:04.323Z,3.73
2018-08-19T19:22:30.285Z,3.90
2018-08-19T19:24:56.279Z,4.13
2018-08-19T19:27:22.978Z,4.10
2018-08-19T19:29:48.970Z,3.80
2018-08-19T19:32:14.922Z,3.80
2018-08-19T19:34:40.931Z,3.60
2018-08-19T19:37:06.899Z,3.90
2018-08-19T19:39:33.641Z,3.60
2018-08-19T19:42:00.354Z,3.70
2018-08-19T19:44:26.352Z,4.20
2018-08-19T19:46:52.329Z,4.20
2018-08-19T19:49:19.086Z,4.30
2018-08-19T19:51:45.060Z,4.10
2018-08-19T19:54:11.016Z,4.37
2018-08-19T19:56:37.003Z,4.43
2018-08-19T19:59:02.977Z,4.13
2018-08-19T20:01:29.699Z,4.70
2018-08-19T20:03:55.639Z,5.53
2018-08-19T20:06:22.360Z,4.83
2018-08-19T20:08:49.072Z,4.37
2018-08-19T20:11:15.144Z,4.87
2018-08-19T20:13:41.564Z,4.60
2018-08-19T20:16:08.114Z,4.33
2018-08-19T20:18:34.103Z,4.57
2018-08-19T20:21:00.094Z,4.60
2018-08-19T20:23:26.061Z,5.00
2018-08-19T20:25:52.774Z,4.20
2018-08-19T20:28:19.545Z,4.90
2018-08-19T20:30:46.263Z,4.83
2018-08-19T20:33:12.367Z,4.63
2018-08-19T20:35:38.358Z,4.03
2018-08-19T20:38:05.084Z,4.47
2018-08-19T20:40:31.188Z,4.83
2018-08-19T20:42:57.213Z,4.03
2018-08-19T20:45:23.968Z,4.23
2018-08-19T20:47:50.675Z,4.40
2018-08-19T20:50:16.682Z,4.40
2018-08-19T20:52:42.695Z,4.40
2018-08-19T20:55:08.677Z,4.60
2018-08-19T20:57:35.418Z,4.30
2018-08-19T21:00:02.177Z,4.43
2018-08-19T21:02:28.181Z,4.40
2018-08-19T21:04:54.895Z,3.87
2018-08-19T21:07:20.890Z,4.50
2018-08-19T21:09:46.993Z,4.40
2018-08-19T21:12:12.994Z,4.03
2018-08-19T21:14:39.731Z,5.07
2018-08-19T21:17:06.472Z,4.30
2018-08-19T21:19:32.429Z,4.40
2018-08-19T21:21:58.423Z,4.30
2018-08-19T21:24:25.106Z,4.53
2018-08-19T21:26:51.103Z,3.97
2018-08-19T21:29:17.799Z,4.17
2018-08-19T21:31:43.798Z,4.30
2018-08-19T21:34:09.740Z,4.47
2018-08-19T21:36:35.768Z,4.17
2018-08-19T21:39:01.762Z,3.90
2018-08-19T21:41:27.713Z,4.23
2018-08-19T21:43:53.760Z,4.53
2018-08-19T21:46:20.479Z,3.90
2018-08-19T21:48:46.472Z,4.37
2018-08-19T21:51:12.565Z,3.73
2018-08-19T21:53:38.636Z,4.27
2018-08-19T21:56:04.652Z,4.70
2018-08-19T21:58:30.785Z,4.33
2018-08-19T22:00:56.756Z,4.43
2018-08-19T22:03:22.999Z,4.47
2018-08-19T22:05:48.979Z,4.30
2018-08-19T22:08:14.961Z,4.20
2018-08-19T22:10:40.956Z,4.27
2018-08-19T22:13:07.737Z,4.47
2018-08-19T22:15:33.816Z,4.47
2018-08-19T22:17:59.815Z,4.67
2018-08-19T22:20:25.875Z,4.47
2018-08-19T22:22:52.654Z,4.60
2018-08-19T22:25:19.489Z,4.20
2018-08-19T22:27:46.218Z,4.30
2018-08-19T22:30:12.197Z,4.00
2018-08-19T22:32:38.192Z,4.13
2018-08-19T22:35:04.199Z,4.07
2018-08-19T22:37:30.889Z,4.03
2018-08-19T22:39:56.977Z,4.43
2018-08-19T22:42:22.858Z,3.80
2018-08-19T22:44:49.558Z,3.87
2018-08-19T22:47:15.555Z,4.83
2018-08-19T22:49:41.522Z,3.90
2018-08-19T22:52:07.559Z,3.97
2018-08-19T22:54:34.268Z,3.93
2018-08-19T22:57:00.275Z,3.87
2018-08-19T22:59:26.245Z,4.07
2018-08-19T23:01:52.976Z,4.10
2018-08-19T23:04:18.938Z,4.30
2018-08-19T23:06:44.905Z,4.00
2018-08-19T23:09:10.899Z,3.83
2018-08-19T23:11:36.896Z,4.03
2018-08-19T23:14:02.889Z,4.03
2018-08-19T23:16:28.868Z,3.13
2018-08-19T23:18:54.865Z,3.43
2018-08-19T23:21:20.872Z,3.50
2018-08-19T23:23:46.862Z,3.90
2018-08-19T23:26:12.843Z,4.30
2018-08-19T23:28:38.854Z,3.50
2018-08-19T23:31:05.559Z,4.00
2018-08-19T23:33:31.564Z,3.23
2018-08-19T23:35:57.541Z,3.37
2018-08-19T23:38:23.494Z,3.43
2018-08-19T23:40:49.473Z,4.30
2018-08-19T23:43:16.194Z,3.57
2018-08-19T23:45:42.202Z,3.70
2018-08-19T23:48:08.195Z,3.63
2018-08-19T23:50:34.185Z,3.70
2018-08-19T23:53:00.891Z,4.20
2018-08-19T23:55:26.895Z,4.07
2018-08-19T23:57:52.878Z,3.50
